Vineland Cherry Ave.

*Note: All times are displayed in the local standard time of the station location.
**Rain - Equipment is designed to accurately record liquid precipitation; under conditions when precipitation is not in liquid form, the data displayed may not properly reflect rainfall values.

Date Max Temp
(°C)
Min Temp
(°C)
Avg Temp
(°C)
Rain (mm) Avg RH (%) Solar Rad (kJ/m2)
Sun, Dec 10, 2017 -1.1 -3.2 -2.0 0.0 74.1 1063.1
Sat, Dec 09, 2017 2.1 -3.4 -0.3 0.0 63.6 2898.1
Fri, Dec 08, 2017 0.2 -4.6 -1.7 0.0 63.1 953.4
Thu, Dec 07, 2017 2.1 -3.4 -0.7 0.0 63.8 3815.3
Wed, Dec 06, 2017 3.9 -1.1 1.4 0.0 55.1 4507.2
Tue, Dec 05, 2017 11.7 0.6 7.7 8.2 72.5 915.6
Mon, Dec 04, 2017 11.5 -4.5 4.8 0.8 75.9 2552.4
DateTime Avg Temp (°C) Rain (mm) RH (%) Solar Rad (kJ/m2)
Mon, Dec 11, 2017 02:00 -2.5 0.0 88.3 0.0
Mon, Dec 11, 2017 01:00 -1.9 0.0 80.8 0.0
Mon, Dec 11, 2017 00:00 -1.9 0.0 74.3 0.0
Sun, Dec 10, 2017 23:00 -2.3 0.0 76.3 0.0
Sun, Dec 10, 2017 22:00 -2.4 0.0 74.3 0.0
Sun, Dec 10, 2017 21:00 -2.2 0.0 73.3 0.0
Sun, Dec 10, 2017 20:00 -2.1 0.0 71.5 0.0
Sun, Dec 10, 2017 19:00 -2.0 0.0 70.8 0.0
Sun, Dec 10, 2017 18:00 -1.7 0.0 68.8 0.0
Sun, Dec 10, 2017 17:00 -1.3 0.0 64.5 6.9
Sun, Dec 10, 2017 16:00 -1.3 0.0 67.3 57.0
Sun, Dec 10, 2017 15:00 -1.2 0.0 68.0 99.5
Sun, Dec 10, 2017 14:00 -1.2 0.0 67.8 132.4
Sun, Dec 10, 2017 13:00 -1.4 0.0 70.0 184.9
Sun, Dec 10, 2017 12:00 -1.4 0.0 66.8 226.1
Sun, Dec 10, 2017 11:00 -1.7 0.0 65.0 193.5
Sun, Dec 10, 2017 10:00 -2.3 0.0 67.0 111.2
Sun, Dec 10, 2017 09:00 -2.6 0.0 68.5 49.7
Sun, Dec 10, 2017 08:00 -2.7 0.0 68.0 1.9
Sun, Dec 10, 2017 07:00 -2.7 0.0 77.3 0.0
Sun, Dec 10, 2017 06:00 -2.9 0.0 82.5 0.0
Sun, Dec 10, 2017 05:00 -2.2 0.0 85.3 0.0
Sun, Dec 10, 2017 04:00 -2.2 0.0 87.3 0.0
Sun, Dec 10, 2017 03:00 -2.2 0.0 87.5 0.0
Sun, Dec 10, 2017 02:00 -2.4 0.0 88.5 0.0
Sun, Dec 10, 2017 01:00 -2.4 0.0 88.8 0.0
Sun, Dec 10, 2017 00:00 -2.3 0.0 89.0 0.0
Sat, Dec 09, 2017 23:00 -3.1 0.0 90.8 0.0
Sat, Dec 09, 2017 22:00 -2.7 0.0 87.5 0.0
Sat, Dec 09, 2017 21:00 -2.4 0.0 85.5 0.0
Sat, Dec 09, 2017 20:00 -0.9 0.0 74.3 0.0
Sat, Dec 09, 2017 19:00 -0.1 0.0 62.5 0.0
Sat, Dec 09, 2017 18:00 0.0 0.0 59.8 0.0
Sat, Dec 09, 2017 17:00 0.3 0.0 58.8 21.5
Sat, Dec 09, 2017 16:00 1.3 0.0 53.3 215.1
Sat, Dec 09, 2017 15:00 1.3 0.0 51.5 269.5
Sat, Dec 09, 2017 14:00 1.5 0.0 49.3 493.9
Sat, Dec 09, 2017 13:00 0.9 0.0 52.3 336.9
Sat, Dec 09, 2017 12:00 1.4 0.0 48.8 460.9
Sat, Dec 09, 2017 11:00 1.6 0.0 50.8 550.8
Sat, Dec 09, 2017 10:00 0.9 0.0 61.0 393.2
Sat, Dec 09, 2017 09:00 -0.7 0.0 69.5 153.9
Sat, Dec 09, 2017 08:00 -0.2 0.0 71.0 2.4
Sat, Dec 09, 2017 07:00 0.1 0.0 73.3 0.0
Sat, Dec 09, 2017 06:00 -0.2 0.0 65.5 0.0
Sat, Dec 09, 2017 05:00 -0.6 0.0 56.3 0.0
Sat, Dec 09, 2017 04:00 -0.8 0.0 56.5 0.0
Sat, Dec 09, 2017 03:00 -0.7 0.0 54.8 0.0


asterix Register now to access more data! asterix